sensor_id;sensor_type;location;lat;lon;timestamp;temperature;humidity
53711;DHT22;39605;52.704;6.752;2022-07-29T00:02:13;15.40;99.90
53711;DHT22;39605;52.704;6.752;2022-07-29T00:04:39;15.40;99.90
53711;DHT22;39605;52.704;6.752;2022-07-29T00:07:05;15.40;99.90
53711;DHT22;39605;52.704;6.752;2022-07-29T00:09:31;15.40;99.90
53711;DHT22;39605;52.704;6.752;2022-07-29T00:11:59;15.30;99.90
53711;DHT22;39605;52.704;6.752;2022-07-29T00:14:25;15.30;99.90
53711;DHT22;39605;52.704;6.752;2022-07-29T00:16:51;15.30;99.90
53711;DHT22;39605;52.704;6.752;2022-07-29T00:19:17;15.00;99.90
53711;DHT22;39605;52.704;6.752;2022-07-29T00:21:42;15.30;99.90
53711;DHT22;39605;52.704;6.752;2022-07-29T00:24:08;15.30;99.90
53711;DHT22;39605;52.704;6.752;2022-07-29T00:26:34;15.30;99.90
53711;DHT22;39605;52.704;6.752;2022-07-29T00:29:02;15.30;99.90
53711;DHT22;39605;52.704;6.752;2022-07-29T00:31:28;15.20;99.90
53711;DHT22;39605;52.704;6.752;2022-07-29T00:33:54;15.20;99.90
53711;DHT22;39605;52.704;6.752;2022-07-29T00:36:20;15.20;99.90
53711;DHT22;39605;52.704;6.752;2022-07-29T00:38:47;15.20;99.90
53711;DHT22;39605;52.704;6.752;2022-07-29T00:41:14;15.20;99.90
53711;DHT22;39605;52.704;6.752;2022-07-29T00:43:39;15.20;99.90
53711;DHT22;39605;52.704;6.752;2022-07-29T00:46:06;15.10;99.90
53711;DHT22;39605;52.704;6.752;2022-07-29T00:48:32;15.00;99.90
53711;DHT22;39605;52.704;6.752;2022-07-29T00:50:58;15.10;99.90
53711;DHT22;39605;52.704;6.752;2022-07-29T00:53:25;15.10;99.90
53711;DHT22;39605;52.704;6.752;2022-07-29T00:55:53;15.10;99.90
53711;DHT22;39605;52.704;6.752;2022-07-29T00:58:20;15.10;99.90
53711;DHT22;39605;52.704;6.752;2022-07-29T01:00:45;15.10;99.90
53711;DHT22;39605;52.704;6.752;2022-07-29T01:03:11;15.10;99.90
53711;DHT22;39605;52.704;6.752;2022-07-29T01:05:37;15.10;99.90
53711;DHT22;39605;52.704;6.752;2022-07-29T01:08:05;15.00;99.90
53711;DHT22;39605;52.704;6.752;2022-07-29T01:10:31;15.00;99.90
53711;DHT22;39605;52.704;6.752;2022-07-29T01:12:58;15.00;99.90
53711;DHT22;39605;52.704;6.752;2022-07-29T01:15:24;15.00;99.90
53711;DHT22;39605;52.704;6.752;2022-07-29T01:18:01;15.00;99.90
53711;DHT22;39605;52.704;6.752;2022-07-29T01:23:29;15.00;99.90
53711;DHT22;39605;52.704;6.752;2022-07-29T01:34:15;14.90;99.90
53711;DHT22;39605;52.704;6.752;2022-07-29T01:36:56;14.90;99.90
53711;DHT22;39605;52.704;6.752;2022-07-29T01:39:35;14.90;99.90
53711;DHT22;39605;52.704;6.752;2022-07-29T01:42:30;14.90;99.90
53711;DHT22;39605;52.704;6.752;2022-07-29T01:47:34;14.90;99.90
53711;DHT22;39605;52.704;6.752;2022-07-29T01:50:07;14.90;99.90
53711;DHT22;39605;52.704;6.752;2022-07-29T01:52:49;14.90;99.90
53711;DHT22;39605;52.704;6.752;2022-07-29T01:55:17;14.90;99.90
53711;DHT22;39605;52.704;6.752;2022-07-29T01:57:48;14.90;99.90
53711;DHT22;39605;52.704;6.752;2022-07-29T02:00:14;14.90;99.90
53711;DHT22;39605;52.704;6.752;2022-07-29T02:02:43;14.80;99.90
53711;DHT22;39605;52.704;6.752;2022-07-29T02:05:12;14.90;99.90
53711;DHT22;39605;52.704;6.752;2022-07-29T02:07:42;14.90;99.90
53711;DHT22;39605;52.704;6.752;2022-07-29T02:10:09;14.90;99.90
53711;DHT22;39605;52.704;6.752;2022-07-29T02:12:36;14.90;99.90
53711;DHT22;39605;52.704;6.752;2022-07-29T02:15:04;14.80;99.90
53711;DHT22;39605;52.704;6.752;2022-07-29T02:17:41;14.80;99.90
53711;DHT22;39605;52.704;6.752;2022-07-29T02:20:08;14.80;99.90
53711;DHT22;39605;52.704;6.752;2022-07-29T02:22:37;14.80;99.90
53711;DHT22;39605;52.704;6.752;2022-07-29T02:25:03;14.80;99.90
53711;DHT22;39605;52.704;6.752;2022-07-29T02:27:30;14.80;99.90
53711;DHT22;39605;52.704;6.752;2022-07-29T02:30:01;14.80;99.90
53711;DHT22;39605;52.704;6.752;2022-07-29T02:32:27;14.80;99.90
53711;DHT22;39605;52.704;6.752;2022-07-29T02:34:54;14.80;99.90
53711;DHT22;39605;52.704;6.752;2022-07-29T02:37:21;14.80;99.90
53711;DHT22;39605;52.704;6.752;2022-07-29T02:39:48;14.70;99.90
53711;DHT22;39605;52.704;6.752;2022-07-29T02:42:16;14.80;99.90
53711;DHT22;39605;52.704;6.752;2022-07-29T02:44:43;14.80;99.90
53711;DHT22;39605;52.704;6.752;2022-07-29T02:47:23;14.80;99.90
53711;DHT22;39605;52.704;6.752;2022-07-29T02:52:52;14.80;99.90
53711;DHT22;39605;52.704;6.752;2022-07-29T03:00:19;14.80;99.90
53711;DHT22;39605;52.704;6.752;2022-07-29T03:02:51;14.80;99.90
53711;DHT22;39605;52.704;6.752;2022-07-29T03:05:19;14.70;99.90
53711;DHT22;39605;52.704;6.752;2022-07-29T03:07:49;14.70;99.90
53711;DHT22;39605;52.704;6.752;2022-07-29T03:10:16;14.70;99.90
53711;DHT22;39605;52.704;6.752;2022-07-29T03:12:43;14.70;99.90
53711;DHT22;39605;52.704;6.752;2022-07-29T03:15:10;14.70;99.90
53711;DHT22;39605;52.704;6.752;2022-07-29T03:17:37;14.70;99.90
53711;DHT22;39605;52.704;6.752;2022-07-29T03:20:03;14.70;99.90
53711;DHT22;39605;52.704;6.752;2022-07-29T03:22:29;14.70;99.90
53711;DHT22;39605;52.704;6.752;2022-07-29T03:24:55;14.70;99.90
53711;DHT22;39605;52.704;6.752;2022-07-29T03:27:21;14.60;99.90
53711;DHT22;39605;52.704;6.752;2022-07-29T03:29:47;14.60;99.90
53711;DHT22;39605;52.704;6.752;2022-07-29T03:32:12;14.60;99.90
53711;DHT22;39605;52.704;6.752;2022-07-29T03:34:38;14.60;99.90
53711;DHT22;39605;52.704;6.752;2022-07-29T03:37:05;14.60;99.90
53711;DHT22;39605;52.704;6.752;2022-07-29T03:39:35;14.50;99.90
53711;DHT22;39605;52.704;6.752;2022-07-29T03:42:02;14.60;99.90
53711;DHT22;39605;52.704;6.752;2022-07-29T03:44:31;14.50;99.90
53711;DHT22;39605;52.704;6.752;2022-07-29T03:46:59;14.50;99.90
53711;DHT22;39605;52.704;6.752;2022-07-29T03:49:27;14.40;99.90
53711;DHT22;39605;52.704;6.752;2022-07-29T03:51:54;14.50;99.90
53711;DHT22;39605;52.704;6.752;2022-07-29T03:54:19;14.50;99.90
53711;DHT22;39605;52.704;6.752;2022-07-29T03:56:46;14.50;99.90
53711;DHT22;39605;52.704;6.752;2022-07-29T03:59:15;14.50;99.90
53711;DHT22;39605;52.704;6.752;2022-07-29T04:01:41;14.50;99.90
53711;DHT22;39605;52.704;6.752;2022-07-29T04:04:08;14.50;99.90
53711;DHT22;39605;52.704;6.752;2022-07-29T04:06:42;14.50;99.90
53711;DHT22;39605;52.704;6.752;2022-07-29T04:09:08;14.50;99.90
53711;DHT22;39605;52.704;6.752;2022-07-29T04:11:35;14.40;99.90
53711;DHT22;39605;52.704;6.752;2022-07-29T04:14:01;14.40;99.90
53711;DHT22;39605;52.704;6.752;2022-07-29T04:16:26;14.40;99.90
53711;DHT22;39605;52.704;6.752;2022-07-29T04:18:52;14.40;99.90
53711;DHT22;39605;52.704;6.752;2022-07-29T04:21:18;14.40;99.90
53711;DHT22;39605;52.704;6.752;2022-07-29T04:23:43;14.40;99.90
53711;DHT22;39605;52.704;6.752;2022-07-29T04:26:10;14.40;99.90
53711;DHT22;39605;52.704;6.752;2022-07-29T04:28:36;14.40;99.90
53711;DHT22;39605;52.704;6.752;2022-07-29T04:31:04;14.40;99.90
53711;DHT22;39605;52.704;6.752;2022-07-29T04:33:30;14.40;99.90
53711;DHT22;39605;52.704;6.752;2022-07-29T04:35:56;14.50;99.90
53711;DHT22;39605;52.704;6.752;2022-07-29T04:38:22;14.50;99.90
53711;DHT22;39605;52.704;6.752;2022-07-29T04:40:47;14.50;99.90
53711;DHT22;39605;52.704;6.752;2022-07-29T04:43:14;14.50;99.90
53711;DHT22;39605;52.704;6.752;2022-07-29T04:45:40;14.60;99.90
53711;DHT22;39605;52.704;6.752;2022-07-29T04:48:05;14.60;99.90
53711;DHT22;39605;52.704;6.752;2022-07-29T04:50:31;14.60;99.90
53711;DHT22;39605;52.704;6.752;2022-07-29T04:52:57;14.60;99.90
53711;DHT22;39605;52.704;6.752;2022-07-29T04:55:22;14.70;99.90
53711;DHT22;39605;52.704;6.752;2022-07-29T04:57:48;14.60;99.90
53711;DHT22;39605;52.704;6.752;2022-07-29T05:00:14;14.70;99.90
53711;DHT22;39605;52.704;6.752;2022-07-29T05:02:40;14.70;99.90
53711;DHT22;39605;52.704;6.752;2022-07-29T05:05:05;14.80;99.90
53711;DHT22;39605;52.704;6.752;2022-07-29T05:07:31;14.80;99.90
53711;DHT22;39605;52.704;6.752;2022-07-29T05:09:57;14.90;99.90
53711;DHT22;39605;52.704;6.752;2022-07-29T05:12:24;14.90;99.90
53711;DHT22;39605;52.704;6.752;2022-07-29T05:14:50;14.90;99.90
53711;DHT22;39605;52.704;6.752;2022-07-29T05:17:15;15.00;99.90
53711;DHT22;39605;52.704;6.752;2022-07-29T05:19:41;15.00;99.90
53711;DHT22;39605;52.704;6.752;2022-07-29T05:22:06;15.00;99.90
53711;DHT22;39605;52.704;6.752;2022-07-29T05:24:32;15.10;99.90
53711;DHT22;39605;52.704;6.752;2022-07-29T05:26:58;15.20;99.90
53711;DHT22;39605;52.704;6.752;2022-07-29T05:29:23;15.20;99.90
53711;DHT22;39605;52.704;6.752;2022-07-29T05:31:49;15.20;99.90
53711;DHT22;39605;52.704;6.752;2022-07-29T05:34:16;15.20;99.90
53711;DHT22;39605;52.704;6.752;2022-07-29T05:36:42;15.30;99.90
53711;DHT22;39605;52.704;6.752;2022-07-29T05:39:08;15.30;99.90
53711;DHT22;39605;52.704;6.752;2022-07-29T05:41:33;15.30;99.90
53711;DHT22;39605;52.704;6.752;2022-07-29T05:43:59;15.40;99.90
53711;DHT22;39605;52.704;6.752;2022-07-29T05:46:25;15.40;99.90
53711;DHT22;39605;52.704;6.752;2022-07-29T05:48:50;15.60;99.90
53711;DHT22;39605;52.704;6.752;2022-07-29T05:51:16;15.60;99.90
53711;DHT22;39605;52.704;6.752;2022-07-29T05:53:42;15.70;99.90
53711;DHT22;39605;52.704;6.752;2022-07-29T05:56:08;15.80;99.90
53711;DHT22;39605;52.704;6.752;2022-07-29T05:58:33;15.80;99.90
53711;DHT22;39605;52.704;6.752;2022-07-29T06:00:59;15.80;99.90
53711;DHT22;39605;52.704;6.752;2022-07-29T06:03:26;16.00;99.90
53711;DHT22;39605;52.704;6.752;2022-07-29T06:05:51;16.10;99.90
53711;DHT22;39605;52.704;6.752;2022-07-29T06:08:17;16.10;99.90
53711;DHT22;39605;52.704;6.752;2022-07-29T06:10:43;16.30;99.90
53711;DHT22;39605;52.704;6.752;2022-07-29T06:13:09;16.30;99.90
53711;DHT22;39605;52.704;6.752;2022-07-29T06:15:34;16.40;99.90
53711;DHT22;39605;52.704;6.752;2022-07-29T06:18:00;16.40;99.90
53711;DHT22;39605;52.704;6.752;2022-07-29T06:20:30;16.50;99.90
53711;DHT22;39605;52.704;6.752;2022-07-29T06:22:56;16.60;99.90
53711;DHT22;39605;52.704;6.752;2022-07-29T06:25:22;16.70;99.90
53711;DHT22;39605;52.704;6.752;2022-07-29T06:27:48;16.70;99.90
53711;DHT22;39605;52.704;6.752;2022-07-29T06:30:13;16.80;99.90
53711;DHT22;39605;52.704;6.752;2022-07-29T06:32:39;16.90;99.90
53711;DHT22;39605;52.704;6.752;2022-07-29T06:35:05;17.00;99.90
53711;DHT22;39605;52.704;6.752;2022-07-29T06:37:31;17.10;99.90
53711;DHT22;39605;52.704;6.752;2022-07-29T06:39:57;17.10;99.90
53711;DHT22;39605;52.704;6.752;2022-07-29T06:42:44;17.20;99.90
53711;DHT22;39605;52.704;6.752;2022-07-29T06:45:11;17.20;99.90
53711;DHT22;39605;52.704;6.752;2022-07-29T06:47:37;17.20;99.90
53711;DHT22;39605;52.704;6.752;2022-07-29T06:50:03;17.20;99.90
53711;DHT22;39605;52.704;6.752;2022-07-29T06:52:30;17.20;99.90
53711;DHT22;39605;52.704;6.752;2022-07-29T06:54:55;17.10;99.90
53711;DHT22;39605;52.704;6.752;2022-07-29T06:57:22;17.10;99.90
53711;DHT22;39605;52.704;6.752;2022-07-29T06:59:48;17.20;99.90
53711;DHT22;39605;52.704;6.752;2022-07-29T07:02:14;17.20;99.90
53711;DHT22;39605;52.704;6.752;2022-07-29T07:04:39;17.20;99.90
53711;DHT22;39605;52.704;6.752;2022-07-29T07:07:05;17.20;99.90
53711;DHT22;39605;52.704;6.752;2022-07-29T07:09:31;17.20;99.90
53711;DHT22;39605;52.704;6.752;2022-07-29T07:11:56;17.30;99.90
53711;DHT22;39605;52.704;6.752;2022-07-29T07:14:22;17.30;99.90
53711;DHT22;39605;52.704;6.752;2022-07-29T07:16:48;17.50;99.90
53711;DHT22;39605;52.704;6.752;2022-07-29T07:19:13;17.60;99.90
53711;DHT22;39605;52.704;6.752;2022-07-29T07:21:39;17.70;99.90
53711;DHT22;39605;52.704;6.752;2022-07-29T07:24:05;17.80;99.90
53711;DHT22;39605;52.704;6.752;2022-07-29T07:26:31;17.90;99.90
53711;DHT22;39605;52.704;6.752;2022-07-29T07:28:57;18.00;99.90
53711;DHT22;39605;52.704;6.752;2022-07-29T07:31:23;18.20;99.90
53711;DHT22;39605;52.704;6.752;2022-07-29T07:33:48;18.30;99.90
53711;DHT22;39605;52.704;6.752;2022-07-29T07:36:19;18.40;99.90
53711;DHT22;39605;52.704;6.752;2022-07-29T07:38:44;18.50;99.90
53711;DHT22;39605;52.704;6.752;2022-07-29T07:41:10;18.40;99.90
53711;DHT22;39605;52.704;6.752;2022-07-29T07:43:36;18.40;99.90
53711;DHT22;39605;52.704;6.752;2022-07-29T07:46:01;18.40;99.90
53711;DHT22;39605;52.704;6.752;2022-07-29T07:48:27;18.30;99.90
53711;DHT22;39605;52.704;6.752;2022-07-29T07:50:53;18.40;99.90
53711;DHT22;39605;52.704;6.752;2022-07-29T07:53:18;18.30;99.90
53711;DHT22;39605;52.704;6.752;2022-07-29T07:55:44;18.30;99.90
53711;DHT22;39605;52.704;6.752;2022-07-29T07:58:10;18.20;99.90
53711;DHT22;39605;52.704;6.752;2022-07-29T08:00:36;18.10;99.90
53711;DHT22;39605;52.704;6.752;2022-07-29T08:03:02;18.10;99.90
53711;DHT22;39605;52.704;6.752;2022-07-29T08:05:27;18.00;99.90
53711;DHT22;39605;52.704;6.752;2022-07-29T08:07:53;18.00;99.90
53711;DHT22;39605;52.704;6.752;2022-07-29T08:10:20;18.00;99.90
53711;DHT22;39605;52.704;6.752;2022-07-29T08:13:08;18.00;99.90
53711;DHT22;39605;52.704;6.752;2022-07-29T08:15:36;18.00;99.90
53711;DHT22;39605;52.704;6.752;2022-07-29T08:18:02;18.10;99.90
53711;DHT22;39605;52.704;6.752;2022-07-29T08:20:27;18.10;99.90
53711;DHT22;39605;52.704;6.752;2022-07-29T08:22:53;18.20;99.90
53711;DHT22;39605;52.704;6.752;2022-07-29T08:25:19;18.20;99.90
53711;DHT22;39605;52.704;6.752;2022-07-29T08:27:48;18.30;99.90
53711;DHT22;39605;52.704;6.752;2022-07-29T08:30:14;18.40;99.90
53711;DHT22;39605;52.704;6.752;2022-07-29T08:32:40;18.50;99.90
53711;DHT22;39605;52.704;6.752;2022-07-29T08:35:06;18.60;99.90
53711;DHT22;39605;52.704;6.752;2022-07-29T08:37:32;18.60;99.90
53711;DHT22;39605;52.704;6.752;2022-07-29T08:39:57;18.60;99.90
53711;DHT22;39605;52.704;6.752;2022-07-29T08:42:23;18.70;99.90
53711;DHT22;39605;52.704;6.752;2022-07-29T08:44:49;18.70;99.90
53711;DHT22;39605;52.704;6.752;2022-07-29T08:47:16;18.70;99.90
53711;DHT22;39605;52.704;6.752;2022-07-29T08:49:42;18.60;99.90
53711;DHT22;39605;52.704;6.752;2022-07-29T08:52:10;18.60;99.90
53711;DHT22;39605;52.704;6.752;2022-07-29T08:54:38;18.60;99.90
53711;DHT22;39605;52.704;6.752;2022-07-29T08:57:05;18.50;99.90
53711;DHT22;39605;52.704;6.752;2022-07-29T08:59:34;18.50;99.90
53711;DHT22;39605;52.704;6.752;2022-07-29T09:02:00;18.50;99.90
53711;DHT22;39605;52.704;6.752;2022-07-29T09:04:29;18.40;99.90
53711;DHT22;39605;52.704;6.752;2022-07-29T09:06:57;18.40;99.90
53711;DHT22;39605;52.704;6.752;2022-07-29T09:09:24;18.40;99.90
53711;DHT22;39605;52.704;6.752;2022-07-29T09:11:50;18.50;99.90
53711;DHT22;39605;52.704;6.752;2022-07-29T09:14:16;18.50;99.90
53711;DHT22;39605;52.704;6.752;2022-07-29T09:16:52;18.50;99.90
53711;DHT22;39605;52.704;6.752;2022-07-29T09:19:29;18.60;99.90
53711;DHT22;39605;52.704;6.752;2022-07-29T09:21:56;18.60;99.90
53711;DHT22;39605;52.704;6.752;2022-07-29T09:24:37;18.60;99.90
53711;DHT22;39605;52.704;6.752;2022-07-29T09:27:25;18.70;99.90
53711;DHT22;39605;52.704;6.752;2022-07-29T09:30:07;18.80;99.90
53711;DHT22;39605;52.704;6.752;2022-07-29T09:32:57;18.90;99.90
53711;DHT22;39605;52.704;6.752;2022-07-29T09:35:25;18.90;99.90
53711;DHT22;39605;52.704;6.752;2022-07-29T09:37:52;19.00;99.90
53711;DHT22;39605;52.704;6.752;2022-07-29T09:40:26;19.10;99.90
53711;DHT22;39605;52.704;6.752;2022-07-29T09:42:52;19.20;99.90
53711;DHT22;39605;52.704;6.752;2022-07-29T09:45:30;19.20;99.90
53711;DHT22;39605;52.704;6.752;2022-07-29T09:47:56;19.30;99.90
53711;DHT22;39605;52.704;6.752;2022-07-29T09:50:42;19.40;99.90
53711;DHT22;39605;52.704;6.752;2022-07-29T09:53:10;19.40;99.90
53711;DHT22;39605;52.704;6.752;2022-07-29T09:55:51;19.50;99.90
53711;DHT22;39605;52.704;6.752;2022-07-29T09:58:19;19.50;99.90
53711;DHT22;39605;52.704;6.752;2022-07-29T10:00:46;19.60;99.90
53711;DHT22;39605;52.704;6.752;2022-07-29T10:03:13;19.60;99.90
53711;DHT22;39605;52.704;6.752;2022-07-29T10:05:39;19.60;99.90
53711;DHT22;39605;52.704;6.752;2022-07-29T10:08:05;19.60;99.90
53711;DHT22;39605;52.704;6.752;2022-07-29T10:10:37;19.60;99.90
53711;DHT22;39605;52.704;6.752;2022-07-29T10:13:10;19.50;99.90
53711;DHT22;39605;52.704;6.752;2022-07-29T10:15:38;19.60;99.90
53711;DHT22;39605;52.704;6.752;2022-07-29T10:18:09;19.50;99.90
53711;DHT22;39605;52.704;6.752;2022-07-29T10:20:35;19.60;99.90
53711;DHT22;39605;52.704;6.752;2022-07-29T10:23:01;19.60;99.90
53711;DHT22;39605;52.704;6.752;2022-07-29T10:25:27;19.60;99.90
53711;DHT22;39605;52.704;6.752;2022-07-29T10:27:53;19.60;99.90
53711;DHT22;39605;52.704;6.752;2022-07-29T10:30:21;19.60;99.90
53711;DHT22;39605;52.704;6.752;2022-07-29T10:36:07;19.50;99.90
53711;DHT22;39605;52.704;6.752;2022-07-29T10:44:14;19.60;99.90
53711;DHT22;39605;52.704;6.752;2022-07-29T10:46:42;19.60;99.90
53711;DHT22;39605;52.704;6.752;2022-07-29T10:49:19;19.60;99.90
53711;DHT22;39605;52.704;6.752;2022-07-29T10:52:08;19.70;99.90
53711;DHT22;39605;52.704;6.752;2022-07-29T10:59:50;19.80;99.90
53711;DHT22;39605;52.704;6.752;2022-07-29T11:02:50;19.80;99.90
53711;DHT22;39605;52.704;6.752;2022-07-29T11:05:16;19.80;99.90
53711;DHT22;39605;52.704;6.752;2022-07-29T11:10:38;19.90;99.90
53711;DHT22;39605;52.704;6.752;2022-07-29T11:13:04;20.00;99.90
53711;DHT22;39605;52.704;6.752;2022-07-29T11:15:56;20.00;99.90
53711;DHT22;39605;52.704;6.752;2022-07-29T11:18:21;20.10;99.90
53711;DHT22;39605;52.704;6.752;2022-07-29T11:20:51;20.20;99.90
53711;DHT22;39605;52.704;6.752;2022-07-29T11:23:20;20.20;99.90
53711;DHT22;39605;52.704;6.752;2022-07-29T11:31:43;20.30;99.90
53711;DHT22;39605;52.704;6.752;2022-07-29T11:34:26;20.30;99.90
53711;DHT22;39605;52.704;6.752;2022-07-29T11:39:43;20.40;99.90
53711;DHT22;39605;52.704;6.752;2022-07-29T11:45:10;20.40;99.90
53711;DHT22;39605;52.704;6.752;2022-07-29T11:47:40;20.30;99.90
53711;DHT22;39605;52.704;6.752;2022-07-29T11:50:08;20.30;99.90
53711;DHT22;39605;52.704;6.752;2022-07-29T11:52:41;20.30;99.90
53711;DHT22;39605;52.704;6.752;2022-07-29T11:55:20;20.30;99.90
53711;DHT22;39605;52.704;6.752;2022-07-29T11:57:56;20.30;99.90
53711;DHT22;39605;52.704;6.752;2022-07-29T12:00:40;20.30;99.90
53711;DHT22;39605;52.704;6.752;2022-07-29T12:03:09;20.40;99.90
53711;DHT22;39605;52.704;6.752;2022-07-29T12:05:42;20.40;99.90
53711;DHT22;39605;52.704;6.752;2022-07-29T12:08:16;20.50;99.90
53711;DHT22;39605;52.704;6.752;2022-07-29T12:10:45;20.60;99.90
53711;DHT22;39605;52.704;6.752;2022-07-29T12:13:12;20.70;99.90
53711;DHT22;39605;52.704;6.752;2022-07-29T12:15:39;20.90;99.90
53711;DHT22;39605;52.704;6.752;2022-07-29T12:18:16;21.00;99.90
53711;DHT22;39605;52.704;6.752;2022-07-29T12:20:42;21.10;99.90
53711;DHT22;39605;52.704;6.752;2022-07-29T12:23:09;21.20;99.90
53711;DHT22;39605;52.704;6.752;2022-07-29T12:25:38;21.50;99.90
53711;DHT22;39605;52.704;6.752;2022-07-29T12:28:09;21.60;99.90
53711;DHT22;39605;52.704;6.752;2022-07-29T12:30:46;21.70;99.90
53711;DHT22;39605;52.704;6.752;2022-07-29T12:33:20;21.70;99.90
53711;DHT22;39605;52.704;6.752;2022-07-29T12:35:48;21.80;99.90
53711;DHT22;39605;52.704;6.752;2022-07-29T12:38:14;21.90;99.90
53711;DHT22;39605;52.704;6.752;2022-07-29T12:40:41;21.90;99.90
53711;DHT22;39605;52.704;6.752;2022-07-29T12:43:09;21.90;99.80
53711;DHT22;39605;52.704;6.752;2022-07-29T12:45:39;21.80;99.90
53711;DHT22;39605;52.704;6.752;2022-07-29T12:48:06;21.80;99.90
53711;DHT22;39605;52.704;6.752;2022-07-29T12:50:35;21.90;99.80
53711;DHT22;39605;52.704;6.752;2022-07-29T12:53:13;21.90;99.90
53711;DHT22;39605;52.704;6.752;2022-07-29T12:55:50;21.90;99.90
53711;DHT22;39605;52.704;6.752;2022-07-29T12:58:31;22.00;99.90
53711;DHT22;39605;52.704;6.752;2022-07-29T13:03:58;22.10;99.90
53711;DHT22;39605;52.704;6.752;2022-07-29T13:09:06;22.20;98.20
53711;DHT22;39605;52.704;6.752;2022-07-29T13:13:58;22.30;99.70
53711;DHT22;39605;52.704;6.752;2022-07-29T13:16:24;22.30;99.40
53711;DHT22;39605;52.704;6.752;2022-07-29T13:19:06;22.20;97.60
53711;DHT22;39605;52.704;6.752;2022-07-29T13:21:32;22.30;98.70
53711;DHT22;39605;52.704;6.752;2022-07-29T13:23:58;22.40;98.50
53711;DHT22;39605;52.704;6.752;2022-07-29T13:26:24;22.40;99.50
53711;DHT22;39605;52.704;6.752;2022-07-29T13:28:49;22.50;99.60
53711;DHT22;39605;52.704;6.752;2022-07-29T13:31:15;22.60;99.90
53711;DHT22;39605;52.704;6.752;2022-07-29T13:33:41;22.70;99.50
53711;DHT22;39605;52.704;6.752;2022-07-29T13:36:06;22.90;99.50
53711;DHT22;39605;52.704;6.752;2022-07-29T13:38:32;23.00;98.00
53711;DHT22;39605;52.704;6.752;2022-07-29T13:40:59;22.90;97.40
53711;DHT22;39605;52.704;6.752;2022-07-29T13:43:25;22.90;96.50
53711;DHT22;39605;52.704;6.752;2022-07-29T13:45:51;22.90;98.70
53711;DHT22;39605;52.704;6.752;2022-07-29T13:48:17;22.90;98.40
53711;DHT22;39605;52.704;6.752;2022-07-29T13:50:43;22.90;98.80
53711;DHT22;39605;52.704;6.752;2022-07-29T13:53:09;23.00;98.00
53711;DHT22;39605;52.704;6.752;2022-07-29T13:55:34;23.00;98.30
53711;DHT22;39605;52.704;6.752;2022-07-29T13:58:00;23.00;97.70
53711;DHT22;39605;52.704;6.752;2022-07-29T14:00:26;23.00;97.50
53711;DHT22;39605;52.704;6.752;2022-07-29T14:02:51;22.90;98.00
53711;DHT22;39605;52.704;6.752;2022-07-29T14:05:17;22.80;98.40
53711;DHT22;39605;52.704;6.752;2022-07-29T14:07:43;22.80;99.00
53711;DHT22;39605;52.704;6.752;2022-07-29T14:10:09;22.70;99.50
53711;DHT22;39605;52.704;6.752;2022-07-29T14:12:35;22.70;99.10
53711;DHT22;39605;52.704;6.752;2022-07-29T14:15:00;22.60;98.90
53711;DHT22;39605;52.704;6.752;2022-07-29T14:17:26;22.60;99.00
53711;DHT22;39605;52.704;6.752;2022-07-29T14:19:52;22.60;99.70
53711;DHT22;39605;52.704;6.752;2022-07-29T14:22:18;22.60;98.60
53711;DHT22;39605;52.704;6.752;2022-07-29T14:24:44;22.60;99.40
53711;DHT22;39605;52.704;6.752;2022-07-29T14:27:11;22.60;97.90
53711;DHT22;39605;52.704;6.752;2022-07-29T14:29:37;22.60;98.10
53711;DHT22;39605;52.704;6.752;2022-07-29T14:32:06;22.60;97.80
53711;DHT22;39605;52.704;6.752;2022-07-29T14:34:32;22.70;97.90
53711;DHT22;39605;52.704;6.752;2022-07-29T14:36:58;22.90;97.70
53711;DHT22;39605;52.704;6.752;2022-07-29T14:39:24;23.10;96.80
53711;DHT22;39605;52.704;6.752;2022-07-29T14:41:50;23.50;97.90
53711;DHT22;39605;52.704;6.752;2022-07-29T14:44:17;23.40;97.70
53711;DHT22;39605;52.704;6.752;2022-07-29T14:46:43;24.00;96.10
53711;DHT22;39605;52.704;6.752;2022-07-29T14:49:09;24.10;95.80
53711;DHT22;39605;52.704;6.752;2022-07-29T14:51:34;24.10;96.00
53711;DHT22;39605;52.704;6.752;2022-07-29T14:54:00;24.50;97.50
53711;DHT22;39605;52.704;6.752;2022-07-29T14:56:26;24.50;95.20
53711;DHT22;39605;52.704;6.752;2022-07-29T14:58:58;24.50;95.40
53711;DHT22;39605;52.704;6.752;2022-07-29T15:01:24;24.30;94.80
53711;DHT22;39605;52.704;6.752;2022-07-29T15:03:50;24.20;95.80
53711;DHT22;39605;52.704;6.752;2022-07-29T15:06:16;24.10;96.20
53711;DHT22;39605;52.704;6.752;2022-07-29T15:08:42;24.00;94.90
53711;DHT22;39605;52.704;6.752;2022-07-29T15:11:08;23.90;94.90
53711;DHT22;39605;52.704;6.752;2022-07-29T15:13:34;23.80;94.00
53711;DHT22;39605;52.704;6.752;2022-07-29T15:16:00;23.80;95.50
53711;DHT22;39605;52.704;6.752;2022-07-29T15:18:26;23.80;95.70
53711;DHT22;39605;52.704;6.752;2022-07-29T15:20:51;23.90;95.90
53711;DHT22;39605;52.704;6.752;2022-07-29T15:23:17;23.90;96.00
53711;DHT22;39605;52.704;6.752;2022-07-29T15:25:43;24.00;95.70
53711;DHT22;39605;52.704;6.752;2022-07-29T15:28:11;24.00;95.10
53711;DHT22;39605;52.704;6.752;2022-07-29T15:30:37;24.00;95.80
53711;DHT22;39605;52.704;6.752;2022-07-29T15:33:06;23.90;94.90
53711;DHT22;39605;52.704;6.752;2022-07-29T15:35:33;23.90;94.90
53711;DHT22;39605;52.704;6.752;2022-07-29T15:37:59;23.90;95.10
53711;DHT22;39605;52.704;6.752;2022-07-29T15:40:25;23.90;94.80
53711;DHT22;39605;52.704;6.752;2022-07-29T15:42:53;23.90;95.40
53711;DHT22;39605;52.704;6.752;2022-07-29T15:45:22;23.80;94.40
53711;DHT22;39605;52.704;6.752;2022-07-29T15:47:48;23.80;94.50
53711;DHT22;39605;52.704;6.752;2022-07-29T15:50:13;23.70;94.40
53711;DHT22;39605;52.704;6.752;2022-07-29T15:52:41;23.60;95.50
53711;DHT22;39605;52.704;6.752;2022-07-29T15:55:08;23.50;95.50
53711;DHT22;39605;52.704;6.752;2022-07-29T15:57:34;23.40;95.20
53711;DHT22;39605;52.704;6.752;2022-07-29T16:00:00;23.40;94.60
53711;DHT22;39605;52.704;6.752;2022-07-29T16:02:25;23.30;95.20
53711;DHT22;39605;52.704;6.752;2022-07-29T16:04:51;23.40;95.10
53711;DHT22;39605;52.704;6.752;2022-07-29T16:07:19;23.40;95.50
53711;DHT22;39605;52.704;6.752;2022-07-29T16:09:45;23.40;95.00
53711;DHT22;39605;52.704;6.752;2022-07-29T16:12:11;23.50;95.30
53711;DHT22;39605;52.704;6.752;2022-07-29T16:14:36;23.50;95.70
53711;DHT22;39605;52.704;6.752;2022-07-29T16:17:02;23.40;94.60
53711;DHT22;39605;52.704;6.752;2022-07-29T16:19:31;23.40;94.90
53711;DHT22;39605;52.704;6.752;2022-07-29T16:21:57;23.40;95.00
53711;DHT22;39605;52.704;6.752;2022-07-29T16:24:22;23.40;95.00
53711;DHT22;39605;52.704;6.752;2022-07-29T16:26:54;23.40;94.70
53711;DHT22;39605;52.704;6.752;2022-07-29T16:29:20;23.40;94.20
53711;DHT22;39605;52.704;6.752;2022-07-29T16:31:45;23.30;94.50
53711;DHT22;39605;52.704;6.752;2022-07-29T16:34:11;23.30;93.90